Statia Express — V7TT3 — position and weather

sailwx.info

Track history (hours):
 
Tides and Currents Weather Stations Pressure Air Temp Water Temp Dewpoint Dewpoint Depression Visibility Wind Speed Wind Dir Waves Ship Positions

Statia Express

Last reported at 2018-Jan-23 23:04 UTC. Time now 2018-Jan-24 05:56 UTC.
Position N 17°17' W 062°46'.

Length 28 m; draft 4 m.

Type: Tug. MMSI: 538003879.

Date/timePositionNaut miles runAvg speedWind from/ knotsBaromVisibWave heightAir tempDewpointWater temp
2018-Jan-23 23:04N 17°17' W 062°46'0 5.6
2018-Jan-23 23:00N 17°17' W 062°47'4 5.4
2018-Jan-23 22:21N 17°19' W 062°50'6 5.4
2018-Jan-23 21:17N 17°23' W 062°54'2 4.8
2018-Jan-23 20:54N 17°24' W 062°56'2 4.7
2018-Jan-23 20:30N 17°25' W 062°58'4 4.5
2018-Jan-23 19:32N 17°28' W 063°01'1 3.5
2018-Jan-23 19:18N 17°29' W 063°01'1 1.0
2018-Jan-23 17:58N 17°29' W 062°59'0 0.0
2018-Jan-23 17:29N 17°29' W 062°59'2 3.0
2018-Jan-23 16:58N 17°30' W 063°00'1 1.7
2018-Jan-23 16:21N 17°29' W 063°00'0 0.1
2018-Jan-23 15:59N 17°29' W 063°00'0 0.0
2018-Jan-23 15:19N 17°29' W 063°00'0 0.1
2018-Jan-23 14:59N 17°29' W 063°00'0 0.0
2018-Jan-23 14:30N 17°29' W 063°00'0 0.0
2018-Jan-23 14:00N 17°29' W 063°00'0 0.0
2018-Jan-23 13:24N 17°29' W 063°00'0 0.0
2018-Jan-23 12:58N 17°29' W 063°00'0 0.0
2018-Jan-23 12:16N 17°29' W 063°00'0 0.0
2018-Jan-23 12:00N 17°29' W 063°00'0 0.0
2018-Jan-23 11:22N 17°29' W 063°00'0 0.0
2018-Jan-23 10:49N 17°29' W 063°00'0 0.0
2018-Jan-23 10:28N 17°29' W 063°00'0 0.0
2018-Jan-23 09:57N 17°29' W 063°00'0 0.0
2018-Jan-23 09:21N 17°29' W 063°00'0 0.0
2018-Jan-23 08:53N 17°29' W 063°00'0 0.0
2018-Jan-23 08:19N 17°29' W 063°00'0 0.0
2018-Jan-23 07:55N 17°29' W 063°00'0 0.0
2018-Jan-23 07:29N 17°29' W 063°00'0 0.0
2018-Jan-23 07:00N 17°29' W 063°00'0 0.0
2018-Jan-23 06:22N 17°29' W 063°00'0 0.0
2018-Jan-23 05:53N 17°29' W 063°00'0 0.1
2018-Jan-23 05:30N 17°29' W 063°00'0 0.0
2018-Jan-23 04:53N 17°29' W 063°00'0 0.1
2018-Jan-23 04:29N 17°29' W 063°00'0 0.4
2018-Jan-23 03:57N 17°29' W 063°00'0 0.0
2018-Jan-23 03:24N 17°29' W 063°00'0 0.0
2018-Jan-23 02:58N 17°29' W 063°00'0 0.0
2018-Jan-23 02:28N 17°29' W 063°00'0 0.0
2018-Jan-23 01:56N 17°29' W 063°00'0 0.0
2018-Jan-23 01:28N 17°29' W 063°00'0 0.0
2018-Jan-23 00:55N 17°29' W 063°00'0 0.0
2018-Jan-23 00:30N 17°29' W 063°00'0 0.0
2018-Jan-22 23:59N 17°29' W 063°00'0 0.0
2018-Jan-22 23:27N 17°29' W 063°00'0 0.0
2018-Jan-22 22:55N 17°29' W 063°00'3 3.4
2018-Jan-22 22:02N 17°26' W 062°59'17 5.5
2018-Jan-22 18:57N 17°14' W 062°46'3 6.6
2018-Jan-22 18:30N 17°12' W 062°44'3 6.5
2018-Jan-22 17:59N 17°09' W 062°42'3 6.1
2018-Jan-22 17:29N 17°07' W 062°40'25 6.7
2018-Jan-22 13:46N 16°49' W 062°21'2 6.7
2018-Jan-22 13:30N 16°48' W 062°20'3 6.6
2018-Jan-22 13:00N 16°46' W 062°18'2 4.4
2018-Jan-22 12:30N 16°44' W 062°16'5 6.7
2018-Jan-22 11:42N 16°40' W 062°12'1 6.7
2018-Jan-22 11:30N 16°39' W 062°11'3 6.6
2018-Jan-22 11:00N 16°37' W 062°09'3 6.5
2018-Jan-22 10:30N 16°34' W 062°07'4 6.4
2018-Jan-22 09:55N 16°31' W 062°05'43 6.5
2018-Jan-22 03:23N 15°54' W 061°43'25 0.8
2018-Jan-20 19:50N 15°29' W 061°36'4 7.9
2018-Jan-20 19:22N 15°33' W 061°37'3 7.3
2018-Jan-20 18:58N 15°36' W 061°38'8 7.1
2018-Jan-20 17:50N 15°43' W 061°40'3 6.5
2018-Jan-20 17:18N 15°47' W 061°41'2 6.4
2018-Jan-20 16:59N 15°49' W 061°42'7 6.4
2018-Jan-20 15:52N 15°55' W 061°46'3 6.7
2018-Jan-20 15:28N 15°57' W 061°47'24 7.4
2018-Jan-20 12:15N 16°17' W 062°01'3 6.9
2018-Jan-20 11:51N 16°19' W 062°03'4 6.8
2018-Jan-20 11:16N 16°22' W 062°05'2 6.6
2018-Jan-20 10:59N 16°24' W 062°07'3 6.5
2018-Jan-20 10:29N 16°26' W 062°09'3 6.5
2018-Jan-20 10:00N 16°28' W 062°11'3 6.6
2018-Jan-20 09:30N 16°31' W 062°13'3 6.6
2018-Jan-20 09:00N 16°33' W 062°16'4 6.8
2018-Jan-20 08:29N 16°36' W 062°18'3 6.9
2018-Jan-20 08:00N 16°38' W 062°20'3 7.0
2018-Jan-20 07:30N 16°41' W 062°23'4 7.0
2018-Jan-20 07:00N 16°44' W 062°25'4 7.1
2018-Jan-20 06:30N 16°47' W 062°27'11 7.0
2018-Jan-20 04:52N 16°56' W 062°34'2 6.6
2018-Jan-20 04:30N 16°58' W 062°36'4 6.5
2018-Jan-20 03:55N 17°01' W 062°38'3 6.6
2018-Jan-20 03:29N 17°03' W 062°40'3 6.8
2018-Jan-20 02:59N 17°06' W 062°42'18 7.1
2018-Jan-20 00:29N 17°19' W 062°54'3 7.2
2018-Jan-20 00:00N 17°22' W 062°57'4 7.1
2018-Jan-19 23:26N 17°26' W 062°59'3 6.8
2018-Jan-19 22:59N 17°28' W 063°01'2 2.1
2018-Jan-19 22:13N 17°29' W 062°60'0 1.1
2018-Jan-19 21:46N 17°29' W 062°59'1 0.7
2018-Jan-19 20:43N 17°29' W 063°00'0 0.0
2018-Jan-19 19:34N 17°29' W 063°00'0 0.0
2018-Jan-19 19:10N 17°29' W 063°00'0 0.1
2018-Jan-19 18:52N 17°29' W 063°00'0 0.0
2018-Jan-19 18:21N 17°29' W 063°00'0 0.3
2018-Jan-19 17:40N 17°29' W 062°60'0 0.1
2018-Jan-19 17:29N 17°29' W 062°60'0 0.2
2018-Jan-19 16:45N 17°29' W 063°00'0 0.6
2018-Jan-19 16:28N 17°29' W 062°60'0 0.0
2018-Jan-19 15:43N 17°29' W 062°60'0 0.1
2018-Jan-19 15:14N 17°29' W 062°60'0 0.0
2018-Jan-19 13:38N 17°29' W 063°00'1 3.7
2018-Jan-19 13:25N 17°29' W 062°59'0 0.0
2018-Jan-19 12:59N 17°29' W 062°59'0 0.0
2018-Jan-19 12:29N 17°29' W 062°59'1 1.4
2018-Jan-19 11:59N 17°29' W 062°60'0 0.1
2018-Jan-19 09:59N 17°29' W 063°00'0 0.0
2018-Jan-19 09:27N 17°29' W 063°00'0 0.0
2018-Jan-19 08:53N 17°29' W 063°00'0 0.0
2018-Jan-19 08:25N 17°29' W 063°00'0 0.1
2018-Jan-19 07:59N 17°29' W 063°00'0 0.0
2018-Jan-19 07:19N 17°29' W 063°00'0 0.1
2018-Jan-19 06:46N 17°29' W 063°00'0 0.1
2018-Jan-19 06:30N 17°29' W 063°00'0 0.0
2018-Jan-19 05:58N 17°29' W 063°00'0 0.0
2018-Jan-19 05:29N 17°29' W 063°00'0 0.0
2018-Jan-19 04:46N 17°29' W 063°00'0 0.0
2018-Jan-19 04:21N 17°29' W 063°00'0 0.0
2018-Jan-19 03:54N 17°29' W 063°00'0 0.0
2018-Jan-19 03:28N 17°29' W 063°00'0 0.4
2018-Jan-19 02:54N 17°29' W 063°00'0 0.0
2018-Jan-19 02:18N 17°29' W 063°00'0 0.1
2018-Jan-19 02:00N 17°29' W 063°00'0 0.0
2018-Jan-19 01:27N 17°29' W 063°00'0 0.5
2018-Jan-19 01:00N 17°29' W 063°00'0 0.0
2018-Jan-19 00:26N 17°29' W 063°00'  
Track history (hours):
 
Tides and Currents Weather Stations Pressure Air Temp Water Temp Dewpoint Dewpoint Depression Visibility Wind Speed Wind Dir Waves Ship Positions

Statia Express

Last reported at 2018-Jan-23 23:04 UTC. Time now 2018-Jan-24 05:56 UTC.
Position N 17°17' W 062°46'.

Length 28 m; draft 4 m.

Type: Tug. MMSI: 538003879.

Date/timePositionNaut miles runAvg speedWind from/ knotsBaromVisibWave heightAir tempDewpointWater temp
2018-Jan-23 23:04N 17°17' W 062°46'0 5.6
2018-Jan-23 23:00N 17°17' W 062°47'4 5.4
2018-Jan-23 22:21N 17°19' W 062°50'6 5.4
2018-Jan-23 21:17N 17°23' W 062°54'2 4.8
2018-Jan-23 20:54N 17°24' W 062°56'2 4.7
2018-Jan-23 20:30N 17°25' W 062°58'4 4.5
2018-Jan-23 19:32N 17°28' W 063°01'1 3.5
2018-Jan-23 19:18N 17°29' W 063°01'1 1.0
2018-Jan-23 17:58N 17°29' W 062°59'0 0.0
2018-Jan-23 17:29N 17°29' W 062°59'2 3.0
2018-Jan-23 16:58N 17°30' W 063°00'1 1.7
2018-Jan-23 16:21N 17°29' W 063°00'0 0.1
2018-Jan-23 15:59N 17°29' W 063°00'0 0.0
2018-Jan-23 15:19N 17°29' W 063°00'0 0.1
2018-Jan-23 14:59N 17°29' W 063°00'0 0.0
2018-Jan-23 14:30N 17°29' W 063°00'0 0.0
2018-Jan-23 14:00N 17°29' W 063°00'0 0.0
2018-Jan-23 13:24N 17°29' W 063°00'0 0.0
2018-Jan-23 12:58N 17°29' W 063°00'0 0.0
2018-Jan-23 12:16N 17°29' W 063°00'0 0.0
2018-Jan-23 12:00N 17°29' W 063°00'0 0.0
2018-Jan-23 11:22N 17°29' W 063°00'0 0.0
2018-Jan-23 10:49N 17°29' W 063°00'0 0.0
2018-Jan-23 10:28N 17°29' W 063°00'0 0.0
2018-Jan-23 09:57N 17°29' W 063°00'0 0.0
2018-Jan-23 09:21N 17°29' W 063°00'0 0.0
2018-Jan-23 08:53N 17°29' W 063°00'0 0.0
2018-Jan-23 08:19N 17°29' W 063°00'0 0.0
2018-Jan-23 07:55N 17°29' W 063°00'0 0.0
2018-Jan-23 07:29N 17°29' W 063°00'0 0.0
2018-Jan-23 07:00N 17°29' W 063°00'0 0.0
2018-Jan-23 06:22N 17°29' W 063°00'0 0.0
2018-Jan-23 05:53N 17°29' W 063°00'0 0.1
2018-Jan-23 05:30N 17°29' W 063°00'0 0.0
2018-Jan-23 04:53N 17°29' W 063°00'0 0.1
2018-Jan-23 04:29N 17°29' W 063°00'0 0.4
2018-Jan-23 03:57N 17°29' W 063°00'0 0.0
2018-Jan-23 03:24N 17°29' W 063°00'0 0.0
2018-Jan-23 02:58N 17°29' W 063°00'0 0.0
2018-Jan-23 02:28N 17°29' W 063°00'0 0.0
2018-Jan-23 01:56N 17°29' W 063°00'0 0.0
2018-Jan-23 01:28N 17°29' W 063°00'0 0.0
2018-Jan-23 00:55N 17°29' W 063°00'0 0.0
2018-Jan-23 00:30N 17°29' W 063°00'0 0.0
2018-Jan-22 23:59N 17°29' W 063°00'0 0.0
2018-Jan-22 23:27N 17°29' W 063°00'0 0.0
2018-Jan-22 22:55N 17°29' W 063°00'3 3.4
2018-Jan-22 22:02N 17°26' W 062°59'17 5.5
2018-Jan-22 18:57N 17°14' W 062°46'3 6.6
2018-Jan-22 18:30N 17°12' W 062°44'3 6.5
2018-Jan-22 17:59N 17°09' W 062°42'3 6.1
2018-Jan-22 17:29N 17°07' W 062°40'25 6.7
2018-Jan-22 13:46N 16°49' W 062°21'2 6.7
2018-Jan-22 13:30N 16°48' W 062°20'3 6.6
2018-Jan-22 13:00N 16°46' W 062°18'2 4.4
2018-Jan-22 12:30N 16°44' W 062°16'5 6.7
2018-Jan-22 11:42N 16°40' W 062°12'1 6.7
2018-Jan-22 11:30N 16°39' W 062°11'3 6.6
2018-Jan-22 11:00N 16°37' W 062°09'3 6.5
2018-Jan-22 10:30N 16°34' W 062°07'4 6.4
2018-Jan-22 09:55N 16°31' W 062°05'43 6.5
2018-Jan-22 03:23N 15°54' W 061°43'25 0.8
2018-Jan-20 19:50N 15°29' W 061°36'4 7.9
2018-Jan-20 19:22N 15°33' W 061°37'3 7.3
2018-Jan-20 18:58N 15°36' W 061°38'8 7.1
2018-Jan-20 17:50N 15°43' W 061°40'3 6.5
2018-Jan-20 17:18N 15°47' W 061°41'2 6.4
2018-Jan-20 16:59N 15°49' W 061°42'7 6.4
2018-Jan-20 15:52N 15°55' W 061°46'3 6.7
2018-Jan-20 15:28N 15°57' W 061°47'24 7.4
2018-Jan-20 12:15N 16°17' W 062°01'3 6.9
2018-Jan-20 11:51N 16°19' W 062°03'4 6.8
2018-Jan-20 11:16N 16°22' W 062°05'2 6.6
2018-Jan-20 10:59N 16°24' W 062°07'3 6.5
2018-Jan-20 10:29N 16°26' W 062°09'3 6.5
2018-Jan-20 10:00N 16°28' W 062°11'3 6.6
2018-Jan-20 09:30N 16°31' W 062°13'3 6.6
2018-Jan-20 09:00N 16°33' W 062°16'4 6.8
2018-Jan-20 08:29N 16°36' W 062°18'3 6.9
2018-Jan-20 08:00N 16°38' W 062°20'3 7.0
2018-Jan-20 07:30N 16°41' W 062°23'4 7.0
2018-Jan-20 07:00N 16°44' W 062°25'4 7.1
2018-Jan-20 06:30N 16°47' W 062°27'11 7.0
2018-Jan-20 04:52N 16°56' W 062°34'2 6.6
2018-Jan-20 04:30N 16°58' W 062°36'4 6.5
2018-Jan-20 03:55N 17°01' W 062°38'3 6.6
2018-Jan-20 03:29N 17°03' W 062°40'3 6.8
2018-Jan-20 02:59N 17°06' W 062°42'18 7.1
2018-Jan-20 00:29N 17°19' W 062°54'3 7.2
2018-Jan-20 00:00N 17°22' W 062°57'4 7.1
2018-Jan-19 23:26N 17°26' W 062°59'3 6.8
2018-Jan-19 22:59N 17°28' W 063°01'2 2.1
2018-Jan-19 22:13N 17°29' W 062°60'0 1.1
2018-Jan-19 21:46N 17°29' W 062°59'1 0.7
2018-Jan-19 20:43N 17°29' W 063°00'0 0.0
2018-Jan-19 19:34N 17°29' W 063°00'0 0.0
2018-Jan-19 19:10N 17°29' W 063°00'0 0.1
2018-Jan-19 18:52N 17°29' W 063°00'0 0.0
2018-Jan-19 18:21N 17°29' W 063°00'0 0.3
2018-Jan-19 17:40N 17°29' W 062°60'0 0.1
2018-Jan-19 17:29N 17°29' W 062°60'0 0.2
2018-Jan-19 16:45N 17°29' W 063°00'0 0.6
2018-Jan-19 16:28N 17°29' W 062°60'0 0.0
2018-Jan-19 15:43N 17°29' W 062°60'0 0.1
2018-Jan-19 15:14N 17°29' W 062°60'0 0.0
2018-Jan-19 13:38N 17°29' W 063°00'1 3.7
2018-Jan-19 13:25N 17°29' W 062°59'0 0.0
2018-Jan-19 12:59N 17°29' W 062°59'0 0.0
2018-Jan-19 12:29N 17°29' W 062°59'1 1.4
2018-Jan-19 11:59N 17°29' W 062°60'0 0.1
2018-Jan-19 09:59N 17°29' W 063°00'0 0.0
2018-Jan-19 09:27N 17°29' W 063°00'0 0.0
2018-Jan-19 08:53N 17°29' W 063°00'0 0.0
2018-Jan-19 08:25N 17°29' W 063°00'0 0.1
2018-Jan-19 07:59N 17°29' W 063°00'0 0.0
2018-Jan-19 07:19N 17°29' W 063°00'0 0.1
2018-Jan-19 06:46N 17°29' W 063°00'0 0.1
2018-Jan-19 06:30N 17°29' W 063°00'0 0.0
2018-Jan-19 05:58N 17°29' W 063°00'0 0.0
2018-Jan-19 05:29N 17°29' W 063°00'0 0.0
2018-Jan-19 04:46N 17°29' W 063°00'0 0.0
2018-Jan-19 04:21N 17°29' W 063°00'0 0.0
2018-Jan-19 03:54N 17°29' W 063°00'0 0.0
2018-Jan-19 03:28N 17°29' W 063°00'0 0.4
2018-Jan-19 02:54N 17°29' W 063°00'0 0.0
2018-Jan-19 02:18N 17°29' W 063°00'0 0.1
2018-Jan-19 02:00N 17°29' W 063°00'0 0.0
2018-Jan-19 01:27N 17°29' W 063°00'0 0.5
2018-Jan-19 01:00N 17°29' W 063°00'0 0.0
2018-Jan-19 00:26N 17°29' W 063°00'  

Dump ship's entire track history